Time;durP1;ratioP1;P1;durP2;ratioP2;P2;SDS_P1;SDS_P2;PMS_P1;PMS_P2;Temp;Humidity;BMP_temperature;BMP_pressure;BME280_temperature;BME280_humidity;BME280_pressure;Samples;Min_cycle;Max_cycle;Signal;HPM_P1;HPM_P2
2023/12/03 00:01:16;;;;;;;57.60;25.80;;;;;;;-1.71;100.00;100027.01;105032;1263;97967;-75
2023/12/03 00:04:02;;;;;;;58.80;25.10;;;;;;;-1.71;100.00;100030.50;105087;1264;98081;-76
2023/12/03 00:06:47;;;;;;;57.40;24.70;;;;;;;-1.69;100.00;100031.60;105125;1264;99417;-75
2023/12/03 00:09:34;;;;;;;55.70;24.00;;;;;;;-1.69;100.00;100031.72;105405;1263;101452;-75
2023/12/03 00:12:19;;;;;;;58.80;25.90;;;;;;;-1.69;100.00;100032.48;105337;1263;99462;-76
2023/12/03 00:15:05;;;;;;;56.20;24.60;;;;;;;-1.70;100.00;100034.77;105513;1261;97987;-76
2023/12/03 00:17:51;;;;;;;55.50;23.90;;;;;;;-1.69;100.00;100035.39;105125;1265;98075;-76
2023/12/03 00:20:37;;;;;;;55.20;23.20;;;;;;;-1.68;100.00;100035.87;105050;1264;98614;-76
2023/12/03 00:23:22;;;;;;;48.60;22.80;;;;;;;-1.68;100.00;100037.60;104869;1265;101344;-76
2023/12/03 00:26:08;;;;;;;54.80;23.90;;;;;;;-1.69;100.00;100041.16;104968;1264;99677;-75
2023/12/03 00:28:54;;;;;;;52.00;24.40;;;;;;;-1.69;100.00;100041.33;105002;1265;97965;-75
2023/12/03 00:31:41;;;;;;;51.10;21.70;;;;;;;-1.68;100.00;100044.44;105265;1272;98104;-77
2023/12/03 00:34:26;;;;;;;54.40;22.80;;;;;;;-1.68;100.00;100051.64;105282;1266;97869;-76
2023/12/03 00:37:12;;;;;;;50.40;23.50;;;;;;;-1.67;100.00;100054.39;105200;1264;101360;-76
2023/12/03 00:39:58;;;;;;;49.50;21.80;;;;;;;-1.66;100.00;100053.02;105265;1263;100509;-75
2023/12/03 00:42:43;;;;;;;47.70;20.80;;;;;;;-1.66;100.00;100057.24;105300;1281;99081;-75
2023/12/03 00:45:29;;;;;;;47.60;21.80;;;;;;;-1.68;100.00;100059.50;105276;1266;97929;-75
2023/12/03 00:48:14;;;;;;;46.70;20.80;;;;;;;-1.69;100.00;100064.81;105305;1268;97877;-75
2023/12/03 00:51:00;;;;;;;54.90;24.00;;;;;;;-1.69;100.00;100064.45;105190;1265;102011;-77
2023/12/03 00:53:46;;;;;;;45.20;21.20;;;;;;;-1.68;100.00;100075.24;105299;1274;101312;-78
2023/12/03 00:56:31;;;;;;;51.50;22.90;;;;;;;-1.68;100.00;100081.54;105320;1261;97959;-75
2023/12/03 00:59:17;;;;;;;57.20;23.20;;;;;;;-1.68;100.00;100087.30;105217;1261;97951;-76
2023/12/03 01:02:03;;;;;;;53.60;24.10;;;;;;;-1.66;100.00;100092.77;105197;1265;98562;-78
2023/12/03 01:04:48;;;;;;;54.50;23.10;;;;;;;-1.64;100.00;100097.30;105276;1261;102607;-76
2023/12/03 01:07:34;;;;;;;53.40;22.30;;;;;;;-1.63;100.00;100099.34;105272;1263;99072;-76
2023/12/03 01:10:20;;;;;;;54.40;22.20;;;;;;;-1.63;100.00;100096.52;105270;1271;98515;-76
2023/12/03 01:13:05;;;;;;;47.10;22.10;;;;;;;-1.64;100.00;100096.10;105120;1263;98745;-75
2023/12/03 01:15:51;;;;;;;50.40;22.00;;;;;;;-1.64;100.00;100095.42;105422;1264;98745;-75
2023/12/03 01:18:36;;;;;;;45.90;21.60;;;;;;;-1.64;100.00;100100.45;105505;1263;103108;-75
2023/12/03 01:21:22;;;;;;;45.40;20.60;;;;;;;-1.62;100.00;100103.81;105284;1263;100330;-76
2023/12/03 01:24:08;;;;;;;44.90;19.50;;;;;;;-1.61;100.00;100099.85;105308;1262;97996;-76
2023/12/03 01:26:53;;;;;;;46.60;19.90;;;;;;;-1.59;100.00;100096.77;105274;1264;98165;-76
2023/12/03 01:29:39;;;;;;;41.30;18.20;;;;;;;-1.59;100.00;100100.96;105269;1263;98396;-76
2023/12/03 01:32:24;;;;;;;40.30;17.50;;;;;;;-1.57;100.00;100103.61;105231;1261;102532;-76
2023/12/03 01:35:10;;;;;;;43.30;18.20;;;;;;;-1.57;100.00;100105.48;105348;1263;99076;-76
2023/12/03 01:37:56;;;;;;;43.10;19.80;;;;;;;-1.58;100.00;100106.98;105231;1263;98419;-77
2023/12/03 01:40:51;;;;;;;40.70;19.10;;;;;;;-1.59;100.00;100104.09;105251;1263;97966;-76
2023/12/03 01:43:47;;;;;;;44.80;19.90;;;;;;;-1.58;100.00;100110.67;105273;1263;98135;-76
2023/12/03 01:46:33;;;;;;;48.90;20.30;;;;;;;-1.56;100.00;100110.15;105322;1260;101402;-76
2023/12/03 01:49:18;;;;;;;51.90;23.10;;;;;;;-1.53;100.00;100115.40;105279;1260;100626;-76
2023/12/03 01:52:04;;;;;;;45.60;19.60;;;;;;;-1.51;100.00;100117.84;105137;1264;99177;-78
2023/12/03 01:54:51;;;;;;;49.50;21.20;;;;;;;-1.50;100.00;100119.17;105323;1263;97980;-76
2023/12/03 01:57:37;;;;;;;50.50;21.90;;;;;;;-1.48;100.00;100120.77;105344;1261;99694;-78
2023/12/03 02:00:22;;;;;;;55.40;23.00;;;;;;;-1.44;100.00;100117.96;105296;1261;101352;-77
2023/12/03 02:03:08;;;;;;;48.40;20.60;;;;;;;-1.41;100.00;100119.45;105217;1260;99209;-76
2023/12/03 02:06:02;;;;;;;53.70;23.30;;;;;;;-1.39;100.00;100122.48;105045;1264;97970;-76
2023/12/03 02:08:48;;;;;;;54.20;23.60;;;;;;;-1.37;100.00;100125.31;108125;1257;95565;-76
2023/12/03 02:11:34;;;;;;;57.10;25.00;;;;;;;-1.35;100.00;100123.37;105146;1264;99007;-76
2023/12/03 02:14:19;;;;;;;50.60;23.30;;;;;;;-1.32;100.00;100122.73;105114;1264;102624;-76
2023/12/03 02:17:05;;;;;;;51.50;24.60;;;;;;;-1.30;100.00;100124.50;105338;1260;99178;-76
2023/12/03 02:19:50;;;;;;;60.50;24.50;;;;;;;-1.30;100.00;100122.96;105335;1263;98813;-76
2023/12/03 02:23:00;;;;;;;59.00;24.20;;;;;;;-1.27;100.00;100132.54;105284;1263;97963;-77
2023/12/03 02:25:48;;;;;;;58.20;25.00;;;;;;;-1.26;100.00;100133.10;105287;1264;98610;-77
2023/12/03 02:28:34;;;;;;;58.00;25.40;;;;;;;-1.26;100.00;100140.27;105458;1264;102075;-76
2023/12/03 02:31:19;;;;;;;52.20;23.60;;;;;;;-1.26;100.00;100145.55;105314;1261;100369;-77
2023/12/03 02:34:10;;;;;;;55.20;24.70;;;;;;;-1.27;100.00;100145.13;105406;1261;98020;-76
2023/12/03 02:36:56;;;;;;;56.20;22.70;;;;;;;-1.29;100.00;100152.09;105546;1263;97941;-78
2023/12/03 02:39:41;;;;;;;62.40;26.30;;;;;;;-1.31;100.00;100153.15;105488;1264;98508;-77
2023/12/03 02:42:27;;;;;;;52.80;22.10;;;;;;;-1.32;100.00;100157.43;105488;1267;102187;-76
2023/12/03 02:45:13;;;;;;;54.10;21.90;;;;;;;-1.32;100.00;100159.36;105348;1260;100491;-77
2023/12/03 02:47:58;;;;;;;54.90;23.50;;;;;;;-1.32;100.00;100164.62;105330;1258;98008;-77
2023/12/03 02:50:44;;;;;;;63.90;26.80;;;;;;;-1.32;100.00;100171.45;105313;1261;98466;-77
2023/12/03 02:53:29;;;;;;;59.60;26.30;;;;;;;-1.31;100.00;100175.77;105423;1264;98447;-76
2023/12/03 02:56:16;;;;;;;59.40;26.30;;;;;;;-1.33;100.00;100175.75;105436;1263;101370;-74
2023/12/03 02:59:01;;;;;;;59.60;26.80;;;;;;;-1.34;100.00;100181.27;105294;1273;99166;-76
2023/12/03 03:01:47;;;;;;;65.20;24.80;;;;;;;-1.34;100.00;100185.09;105351;1260;97992;-75
2023/12/03 03:04:32;;;;;;;54.30;24.20;;;;;;;-1.33;100.00;100187.09;105403;1261;97975;-77
2023/12/03 03:07:18;;;;;;;62.10;24.30;;;;;;;-1.32;100.00;100190.58;105473;1260;98633;-76
2023/12/03 03:10:04;;;;;;;58.20;24.80;;;;;;;-1.33;100.00;100196.28;105334;1263;102783;-76
2023/12/03 03:12:50;;;;;;;65.10;26.50;;;;;;;-1.34;100.00;100200.52;105376;1260;100465;-76
2023/12/03 03:15:35;;;;;;;57.70;22.80;;;;;;;-1.35;100.00;100202.39;105401;1261;97966;-76
2023/12/03 03:18:21;;;;;;;58.10;23.80;;;;;;;-1.36;100.00;100206.79;105445;1263;97903;-76
2023/12/03 03:21:07;;;;;;;60.70;24.60;;;;;;;-1.36;100.00;100206.81;105184;1260;98400;-76
2023/12/03 03:23:52;;;;;;;62.80;24.90;;;;;;;-1.36;100.00;100211.55;105381;1261;101337;-76
2023/12/03 03:26:39;;;;;;;57.90;25.20;;;;;;;-1.35;100.00;100215.86;105484;1264;99304;-76
2023/12/03 03:29:25;;;;;;;56.30;25.10;;;;;;;-1.35;100.00;100220.53;105242;1263;98545;-75
2023/12/03 03:32:10;;;;;;;63.30;26.20;;;;;;;-1.32;100.00;100224.69;105270;1262;97989;-76
2023/12/03 03:34:56;;;;;;;57.50;27.00;;;;;;;-1.30;100.00;100229.64;105384;1258;98136;-76
2023/12/03 03:37:41;;;;;;;60.50;26.20;;;;;;;-1.28;100.00;100237.70;105425;1261;101389;-77
2023/12/03 03:40:27;;;;;;;58.00;23.60;;;;;;;-1.27;100.00;100238.12;105354;1261;99095;-77
2023/12/03 03:43:14;;;;;;;61.50;26.60;;;;;;;-1.24;100.00;100234.77;105275;1272;99497;-76
2023/12/03 03:45:59;;;;;;;66.40;26.50;;;;;;;-1.23;100.00;100235.70;105470;1257;97899;-77
2023/12/03 03:48:45;;;;;;;60.00;25.90;;;;;;;-1.20;100.00;100236.67;105368;1261;98831;-76
2023/12/03 03:51:30;;;;;;;54.80;23.80;;;;;;;-1.17;100.00;100231.89;105398;1262;101339;-77
2023/12/03 03:54:16;;;;;;;56.00;24.50;;;;;;;-1.17;100.00;100229.95;105334;1261;100101;-76
2023/12/03 03:57:02;;;;;;;55.10;24.10;;;;;;;-1.17;100.00;100231.20;105356;1273;99062;-76
2023/12/03 03:59:47;;;;;;;60.80;22.20;;;;;;;-1.17;100.00;100234.36;105374;1264;97988;-76
2023/12/03 04:02:32;;;;;;;53.10;22.90;;;;;;;-1.16;100.00;100234.30;105428;1261;98482;-75
2023/12/03 04:05:18;;;;;;;58.50;23.30;;;;;;;-1.15;100.00;100233.32;105394;1259;101245;-75
2023/12/03 04:08:04;;;;;;;50.30;22.20;;;;;;;-1.13;100.00;100237.36;105416;1264;100447;-76
2023/12/03 04:10:49;;;;;;;65.30;24.10;;;;;;;-1.12;100.00;100236.05;105373;1260;98142;-75
2023/12/03 04:13:36;;;;;;;52.10;23.40;;;;;;;-1.10;100.00;100235.56;105424;1260;97988;-76
2023/12/03 04:16:22;;;;;;;60.60;23.90;;;;;;;-1.08;100.00;100240.67;105288;1266;97966;-76
2023/12/03 04:19:08;;;;;;;56.40;24.50;;;;;;;-1.07;100.00;100246.17;105848;1262;101339;-78
2023/12/03 04:21:53;;;;;;;54.80;25.00;;;;;;;-1.07;100.00;100249.09;105657;1260;100103;-77
2023/12/03 04:24:39;;;;;;;62.20;24.70;;;;;;;-1.06;100.00;100244.82;105364;1259;97951;-75
2023/12/03 04:27:26;;;;;;;50.30;23.20;;;;;;;-1.05;100.00;100246.84;105392;1260;97979;-76
2023/12/03 04:30:11;;;;;;;51.00;21.60;;;;;;;-1.03;100.00;100249.71;105765;1261;97958;-76
2023/12/03 04:32:57;;;;;;;57.00;22.20;;;;;;;-1.03;100.00;100249.89;105397;1260;101382;-76
2023/12/03 04:35:43;;;;;;;61.40;24.50;;;;;;;-1.02;100.00;100253.83;105452;1260;99157;-76
2023/12/03 04:38:28;;;;;;;51.40;22.00;;;;;;;-1.02;100.00;100258.02;105395;1259;98923;-76
2023/12/03 04:41:14;;;;;;;51.70;21.80;;;;;;;-1.03;100.00;100260.39;105412;1263;97918;-76
2023/12/03 04:44:00;;;;;;;53.00;23.80;;;;;;;-1.02;100.00;100264.51;105464;1260;98499;-76
2023/12/03 04:46:46;;;;;;;54.70;23.60;;;;;;;-1.03;100.00;100266.66;105245;1260;101335;-75
2023/12/03 04:49:31;;;;;;;56.50;23.90;;;;;;;-1.03;100.00;100270.24;105356;1259;99971;-76
2023/12/03 04:52:16;;;;;;;54.30;22.00;;;;;;;-1.04;100.00;100276.27;105304;1260;98105;-76
2023/12/03 04:55:02;;;;;;;56.30;24.00;;;;;;;-1.07;100.00;100283.13;105328;1267;97885;-75
2023/12/03 04:57:48;;;;;;;54.40;24.50;;;;;;;-1.10;100.00;100285.84;105376;1264;97872;-76
2023/12/03 05:00:34;;;;;;;44.30;19.80;;;;;;;-1.11;100.00;100293.48;105383;1260;101393;-76
2023/12/03 05:03:20;;;;;;;46.70;20.40;;;;;;;-1.13;100.00;100300.60;105474;1263;99124;-76
2023/12/03 05:06:06;;;;;;;47.80;21.30;;;;;;;-1.15;100.00;100307.57;105274;1263;98066;-76
2023/12/03 05:08:52;;;;;;;48.90;21.40;;;;;;;-1.18;100.00;100312.57;105354;1259;97875;-76
2023/12/03 05:11:40;;;;;;;54.50;23.00;;;;;;;-1.23;100.00;100317.70;105542;1262;98441;-77
2023/12/03 05:14:26;;;;;;;54.10;22.90;;;;;;;-1.28;100.00;100322.12;105224;1265;102657;-76
2023/12/03 05:17:11;;;;;;;54.20;22.50;;;;;;;-1.33;100.00;100321.16;105338;1261;100378;-76
2023/12/03 05:19:57;;;;;;;54.30;21.80;;;;;;;-1.40;100.00;100320.60;105286;1261;97977;-76
2023/12/03 05:22:42;;;;;;;55.70;23.10;;;;;;;-1.44;100.00;100327.79;105422;1261;98263;-76
2023/12/03 05:25:28;;;;;;;51.20;21.50;;;;;;;-1.47;100.00;100328.14;105317;1259;97134;-75
2023/12/03 05:28:14;;;;;;;55.90;22.70;;;;;;;-1.49;100.00;100334.27;105458;1262;102238;-75
2023/12/03 05:30:59;;;;;;;52.50;22.50;;;;;;;-1.49;100.00;100336.89;105294;1262;99146;-76
2023/12/03 05:33:45;;;;;;;52.00;22.50;;;;;;;-1.47;100.00;100342.90;105368;1263;98470;-75
2023/12/03 05:36:31;;;;;;;55.20;24.20;;;;;;;-1.47;100.00;100350.53;105465;1264;97967;-76
2023/12/03 05:39:16;;;;;;;53.80;22.20;;;;;;;-1.45;100.00;100346.73;105330;1259;98545;-75
2023/12/03 05:42:02;;;;;;;53.10;22.10;;;;;;;-1.42;100.00;100344.73;105435;1264;101380;-76
2023/12/03 05:44:47;;;;;;;58.60;23.20;;;;;;;-1.38;100.00;100347.41;105368;1260;99092;-76
2023/12/03 05:47:34;;;;;;;53.80;23.40;;;;;;;-1.34;100.00;100353.80;105415;1262;97956;-76
2023/12/03 05:50:20;;;;;;;60.00;26.80;;;;;;;-1.31;100.00;100358.96;105352;1261;97957;-76
2023/12/03 05:53:05;;;;;;;60.50;25.80;;;;;;;-1.28;100.00;100362.22;105457;1262;98466;-76
2023/12/03 05:55:51;;;;;;;64.40;27.80;;;;;;;-1.26;100.00;100363.84;105448;1264;102747;-76
2023/12/03 05:58:36;;;;;;;59.10;26.20;;;;;;;-1.26;100.00;100369.76;105372;1260;99194;-76
2023/12/03 06:01:24;;;;;;;63.30;25.20;;;;;;;-1.24;100.00;100375.77;105624;1258;99123;-76
2023/12/03 06:04:10;;;;;;;64.00;27.90;;;;;;;-1.24;100.00;100377.46;105306;1259;97926;-75
2023/12/03 06:06:56;;;;;;;63.90;26.40;;;;;;;-1.20;100.00;100379.86;105122;1259;98009;-76
2023/12/03 06:09:41;;;;;;;58.90;25.60;;;;;;;-1.17;100.00;100382.94;105327;1264;102131;-76
2023/12/03 06:12:27;;;;;;;65.10;26.00;;;;;;;-1.15;100.00;100384.70;105344;1264;99351;-76
2023/12/03 06:15:13;;;;;;;72.80;26.20;;;;;;;-1.14;100.00;100391.96;105368;1260;98031;-76
2023/12/03 06:17:58;;;;;;;64.10;27.00;;;;;;;-1.14;100.00;100392.01;105260;1261;99206;-76
2023/12/03 06:20:44;;;;;;;66.90;27.80;;;;;;;-1.19;100.00;100400.09;105379;1266;98758;-75
2023/12/03 06:23:29;;;;;;;65.90;27.20;;;;;;;-1.27;100.00;100405.21;105383;1264;101337;-75
2023/12/03 06:26:15;;;;;;;71.00;30.00;;;;;;;-1.29;100.00;100409.41;105313;1260;99126;-75
2023/12/03 06:29:00;;;;;;;67.40;28.00;;;;;;;-1.29;100.00;100415.21;105452;1260;98543;-76
2023/12/03 06:31:48;;;;;;;74.20;30.70;;;;;;;-1.28;100.00;100417.56;105322;1264;98060;-76
2023/12/03 06:34:33;;;;;;;72.10;29.80;;;;;;;-1.25;100.00;100418.41;105634;1262;99634;-75
2023/12/03 06:37:19;;;;;;;75.30;30.90;;;;;;;-1.23;100.00;100419.64;105516;1257;101355;-76
2023/12/03 06:40:05;;;;;;;72.70;28.70;;;;;;;-1.21;100.00;100421.45;105371;1259;99121;-75
2023/12/03 06:42:51;;;;;;;67.00;27.40;;;;;;;-1.21;100.00;100426.48;105229;1264;99007;-76
2023/12/03 06:45:37;;;;;;;67.20;27.60;;;;;;;-1.21;100.00;100429.98;105375;1257;97999;-75
2023/12/03 06:48:23;;;;;;;72.70;29.50;;;;;;;-1.21;100.00;100434.35;105450;1263;99722;-76
2023/12/03 06:51:09;;;;;;;70.30;27.10;;;;;;;-1.22;100.00;100436.71;105426;1260;102080;-76
2023/12/03 06:53:55;;;;;;;79.20;30.70;;;;;;;-1.23;100.00;100436.52;105494;1262;99142;-76
2023/12/03 06:56:40;;;;;;;71.40;28.80;;;;;;;-1.22;100.00;100436.96;105334;1259;98007;-75
2023/12/03 06:59:26;;;;;;;74.50;29.10;;;;;;;-1.21;100.00;100440.52;105422;1260;99016;-74
2023/12/03 07:02:11;;;;;;;74.70;30.90;;;;;;;-1.20;100.00;100447.05;105451;1257;98676;-77
2023/12/03 07:04:57;;;;;;;76.10;28.60;;;;;;;-1.17;100.00;100449.48;105385;1262;102547;-76
2023/12/03 07:07:44;;;;;;;80.30;30.60;;;;;;;-1.13;100.00;100451.30;105332;1259;100145;-77
2023/12/03 07:10:30;;;;;;;75.90;31.10;;;;;;;-1.10;100.00;100455.23;105187;1264;100129;-76
2023/12/03 07:13:15;;;;;;;72.40;30.30;;;;;;;-1.05;100.00;100456.94;105396;1259;97871;-76
2023/12/03 07:16:01;;;;;;;85.00;34.90;;;;;;;-1.02;100.00;100458.83;105369;1263;98405;-76
2023/12/03 07:18:46;;;;;;;81.00;31.20;;;;;;;-1.00;100.00;100459.72;105326;1262;101353;-76
2023/12/03 07:21:32;;;;;;;78.40;32.20;;;;;;;-0.98;100.00;100457.98;105118;1262;99189;-76
2023/12/03 07:24:18;;;;;;;81.10;32.30;;;;;;;-0.95;100.00;100454.79;105137;1273;99241;-76
2023/12/03 07:27:04;;;;;;;74.80;30.90;;;;;;;-0.90;100.00;100453.92;105470;1264;99334;-76
2023/12/03 07:29:56;;;;;;;77.50;30.10;;;;;;;-0.89;100.00;100459.75;105370;1259;97869;-76
2023/12/03 07:32:42;;;;;;;82.80;34.10;;;;;;;-0.86;100.00;100460.77;105370;1264;101929;-76
2023/12/03 07:35:27;;;;;;;82.50;34.30;;;;;;;-0.84;100.00;100460.45;105355;1259;99447;-75
2023/12/03 07:38:13;;;;;;;76.90;32.80;;;;;;;-0.82;100.00;100463.92;105368;1263;98199;-76
2023/12/03 07:40:59;;;;;;;82.60;33.20;;;;;;;-0.79;100.00;100464.21;105297;1262;99210;-76
2023/12/03 07:43:45;;;;;;;80.30;32.30;;;;;;;-0.76;100.00;100463.64;105332;1259;98196;-75
2023/12/03 07:46:33;;;;;;;89.90;34.40;;;;;;;-0.71;100.00;100463.45;105348;1259;103722;-76
2023/12/03 07:49:19;;;;;;;77.10;33.40;;;;;;;-0.64;100.00;100465.04;105177;1263;101345;-76
2023/12/03 07:52:04;;;;;;;88.00;37.60;;;;;;;-0.59;100.00;100463.77;105255;1261;224690;-76
2023/12/03 07:54:50;;;;;;;90.70;36.20;;;;;;;-0.56;100.00;100461.35;105324;1260;97926;-75
2023/12/03 07:57:36;;;;;;;95.20;42.40;;;;;;;-0.52;100.00;100462.63;105295;1264;98490;-76
2023/12/03 08:00:21;;;;;;;88.20;36.20;;;;;;;-0.51;100.00;100466.45;105404;1260;101343;-76
2023/12/03 08:03:07;;;;;;;80.40;31.70;;;;;;;-0.48;100.00;100466.52;105117;1265;99080;-75
2023/12/03 08:05:52;;;;;;;81.30;34.40;;;;;;;-0.47;100.00;100471.39;105264;1268;99120;-76
2023/12/03 08:08:37;;;;;;;80.10;32.50;;;;;;;-0.46;100.00;100475.66;105102;1263;99129;-76
2023/12/03 08:11:23;;;;;;;91.20;35.60;;;;;;;-0.41;100.00;100480.05;105121;1264;98486;-76
2023/12/03 08:14:09;;;;;;;90.60;37.80;;;;;;;-0.37;100.00;100484.41;105327;1263;102068;-76
2023/12/03 08:16:54;;;;;;;79.00;33.50;;;;;;;-0.31;100.00;100488.21;105433;1264;100484;-76
2023/12/03 08:19:40;;;;;;;77.70;32.00;;;;;;;-0.29;100.00;100492.77;105206;1259;99113;-77
2023/12/03 08:22:26;;;;;;;78.50;30.30;;;;;;;-0.28;100.00;100494.61;105427;1259;97934;-75
2023/12/03 08:25:11;;;;;;;76.00;33.30;;;;;;;-0.26;100.00;100496.89;105418;1263;99571;-75
2023/12/03 08:27:57;;;;;;;76.20;30.10;;;;;;;-0.21;100.00;100500.55;105133;1257;102613;-75
2023/12/03 08:30:43;;;;;;;105.90;43.10;;;;;;;-0.18;100.00;100504.15;105346;1259;99130;-76
2023/12/03 08:33:28;;;;;;;88.70;37.80;;;;;;;-0.19;100.00;100507.36;105057;1263;99415;-75
2023/12/03 08:36:18;;;;;;;76.20;31.30;;;;;;;-0.18;100.00;100509.02;105039;1264;98537;-75
2023/12/03 08:39:07;;;;;;;69.00;30.00;;;;;;;-0.16;100.00;100511.52;104912;1265;98057;-76
2023/12/03 08:41:53;;;;;;;66.40;30.00;;;;;;;-0.15;100.00;100518.68;105265;1259;102392;-75
2023/12/03 08:44:39;;;;;;;69.30;31.00;;;;;;;-0.14;100.00;100520.67;105197;1260;100401;-75
2023/12/03 08:47:25;;;;;;;71.50;30.70;;;;;;;-0.12;100.00;100523.65;105513;1260;97980;-76
2023/12/03 08:50:12;;;;;;;74.80;30.80;;;;;;;-0.11;100.00;100525.48;105282;1262;98089;-75
2023/12/03 08:52:58;;;;;;;71.30;29.40;;;;;;;-0.12;100.00;100531.90;105447;1262;98437;-76
2023/12/03 08:55:43;;;;;;;67.30;29.60;;;;;;;-0.13;100.00;100539.15;105228;1257;101471;-75
2023/12/03 08:58:31;;;;;;;66.60;29.60;;;;;;;-0.11;100.00;100541.89;105093;1259;99873;-74
2023/12/03 09:01:16;;;;;;;65.60;28.20;;;;;;;-0.11;100.00;100547.30;105093;1264;98546;-76
2023/12/03 09:04:02;;;;;;;68.80;29.30;;;;;;;-0.08;100.00;100551.27;105375;1262;98595;-76
2023/12/03 09:06:48;;;;;;;74.30;32.90;;;;;;;-0.05;100.00;100552.77;105362;1260;99355;-75
2023/12/03 09:09:33;;;;;;;68.30;29.30;;;;;;;-0.06;100.00;100549.83;105500;1259;101428;-76
2023/12/03 09:12:19;;;;;;;85.20;37.40;;;;;;;-0.06;100.00;100552.30;105330;1262;99681;-77
2023/12/03 09:15:05;;;;;;;75.50;32.70;;;;;;;-0.02;100.00;100552.73;105251;1258;98881;-78
2023/12/03 09:17:51;;;;;;;78.60;36.50;;;;;;;0.01;100.00;100556.20;105401;1259;97928;-78
2023/12/03 09:20:39;;;;;;;77.60;35.90;;;;;;;0.04;100.00;100558.36;105390;1263;97993;-77
2023/12/03 09:23:24;;;;;;;87.50;38.10;;;;;;;0.08;100.00;100556.16;106107;1263;103598;-77
2023/12/03 09:26:10;;;;;;;85.30;40.90;;;;;;;0.12;100.00;100557.42;105277;1263;99196;-77
2023/12/03 09:28:55;;;;;;;69.80;31.30;;;;;;;0.15;100.00;100558.92;105300;1259;97976;-77
2023/12/03 09:31:41;;;;;;;78.00;32.10;;;;;;;0.20;100.00;100556.05;105474;1263;98807;-77
2023/12/03 09:34:27;;;;;;;81.30;33.40;;;;;;;0.24;100.00;100560.30;105418;1261;98416;-77
2023/12/03 09:37:13;;;;;;;84.20;34.80;;;;;;;0.28;100.00;100561.19;105326;1259;101885;-75
2023/12/03 09:39:59;;;;;;;72.90;32.50;;;;;;;0.32;100.00;100565.27;105424;1262;99148;-77
2023/12/03 09:42:46;;;;;;;79.30;34.50;;;;;;;0.33;100.00;100564.44;106582;1258;97874;-77
2023/12/03 09:45:33;;;;;;;79.20;34.70;;;;;;;0.35;100.00;100567.09;105170;1262;97996;-77
2023/12/03 09:48:21;;;;;;;76.20;36.50;;;;;;;0.39;100.00;100568.06;105132;1261;98577;-77
2023/12/03 09:51:11;;;;;;;76.40;33.60;;;;;;;0.44;100.00;100565.15;105022;1259;101481;-77
2023/12/03 09:53:58;;;;;;;86.80;34.80;;;;;;;0.48;100.00;100565.87;105172;1263;100774;-78
2023/12/03 09:56:46;;;;;;;73.60;32.70;;;;;;;0.52;100.00;100568.05;105360;1259;97959;-76
2023/12/03 09:59:37;;;;;;;71.90;31.00;;;;;;;0.54;100.00;100569.05;105066;1259;98435;-76
2023/12/03 10:02:26;;;;;;;67.20;29.00;;;;;;;0.56;100.00;100570.83;106720;1259;98514;-76
2023/12/03 10:05:12;;;;;;;76.10;30.70;;;;;;;0.56;100.00;100571.52;105216;1259;101881;-76
2023/12/03 10:07:58;;;;;;;66.80;27.20;;;;;;;0.59;100.00;100570.02;105254;1260;100046;-76
2023/12/03 10:10:50;;;;;;;67.30;28.90;;;;;;;0.62;100.00;100568.60;105335;1259;98069;-75
2023/12/03 10:13:36;;;;;;;68.80;31.30;;;;;;;0.63;100.00;100567.45;105239;1262;97957;-76
2023/12/03 10:16:22;;;;;;;73.90;30.90;;;;;;;0.66;100.00;100562.80;105327;1259;97921;-75
2023/12/03 10:19:08;;;;;;;63.00;29.80;;;;;;;0.69;100.00;100568.00;105239;1263;101383;-76
2023/12/03 10:21:55;;;;;;;63.60;27.30;;;;;;;0.70;100.00;100571.82;105469;1257;100373;-76
2023/12/03 10:24:48;;;;;;;69.30;30.10;;;;;;;0.68;100.00;100572.00;105244;1259;98445;-76
2023/12/03 10:27:34;;;;;;;72.60;33.00;;;;;;;0.68;100.00;100576.38;105195;1262;97947;-75
2023/12/03 10:30:19;;;;;;;72.50;35.00;;;;;;;0.70;100.00;100576.67;105125;1257;97980;-75
2023/12/03 10:33:05;;;;;;;78.00;36.70;;;;;;;0.74;100.00;100577.96;105088;1263;102610;-76
2023/12/03 10:35:51;;;;;;;76.40;37.00;;;;;;;0.78;100.00;100579.95;105134;1263;99090;-75
2023/12/03 10:38:41;;;;;;;86.80;40.00;;;;;;;0.79;100.00;100583.39;105061;1259;97888;-75
2023/12/03 10:41:27;;;;;;;73.50;37.50;;;;;;;0.78;100.00;100584.61;105231;1259;97973;-75
2023/12/03 10:44:24;;;;;;;78.50;38.10;;;;;;;0.80;100.00;100587.48;105174;1265;98742;-75
2023/12/03 10:47:12;;;;;;;68.80;35.50;;;;;;;0.85;100.00;100595.52;105358;1261;102491;-76
2023/12/03 10:50:00;;;;;;;71.50;35.30;;;;;;;0.88;100.00;100597.42;104969;1262;100699;-75
2023/12/03 10:52:46;;;;;;;71.90;34.80;;;;;;;0.88;100.00;100601.85;104993;1257;99263;-75
2023/12/03 10:55:31;;;;;;;68.40;35.80;;;;;;;0.88;100.00;100603.93;105101;1260;98016;-76
2023/12/03 10:58:19;;;;;;;60.70;32.40;;;;;;;0.92;100.00;100604.45;105270;1259;97970;-76
2023/12/03 11:01:15;;;;;;;63.40;31.90;;;;;;;1.19;100.00;100604.47;105149;1257;101439;-76
2023/12/03 11:04:05;;;;;;;74.70;36.40;;;;;;;1.28;100.00;100605.85;105124;1259;99082;-75
2023/12/03 11:06:54;;;;;;;56.40;28.90;;;;;;;1.26;100.00;100612.83;105086;1259;97907;-75
2023/12/03 11:09:40;;;;;;;56.10;29.60;;;;;;;1.22;100.00;100618.67;105069;1262;97907;-76
2023/12/03 11:12:26;;;;;;;52.80;27.00;;;;;;;1.20;100.00;100622.34;105265;1259;98402;-75
2023/12/03 11:15:11;;;;;;;49.30;24.40;;;;;;;1.17;100.00;100625.75;105145;1264;101952;-75
2023/12/03 11:17:57;;;;;;;46.60;23.10;;;;;;;1.15;100.00;100624.70;105172;1259;99109;-74
2023/12/03 11:20:46;;;;;;;40.00;20.50;;;;;;;1.12;100.00;100627.21;106343;1259;98001;-76
2023/12/03 11:24:07;;;;;;;39.50;21.30;;;;;;;1.09;100.00;100632.52;106707;1258;97964;-76
2023/12/03 11:26:52;;;;;;;33.20;17.40;;;;;;;1.07;100.00;100635.05;105217;1259;98072;-75
2023/12/03 11:29:51;;;;;;;34.80;19.80;;;;;;;1.07;100.00;100635.90;105112;1264;101405;-75
2023/12/03 11:32:37;;;;;;;32.60;17.40;;;;;;;1.10;100.00;100639.00;108173;1259;99127;-76
2023/12/03 11:35:24;;;;;;;30.20;15.50;;;;;;;1.11;100.00;100646.30;105371;1259;99209;-76
2023/12/03 11:38:22;;;;;;;30.50;16.50;;;;;;;1.11;100.00;100648.94;105185;1259;97965;-76
2023/12/03 11:41:08;;;;;;;25.20;14.30;;;;;;;1.10;100.00;100655.66;105161;1264;98496;-75
2023/12/03 11:43:54;;;;;;;24.10;13.40;;;;;;;1.07;100.00;100656.33;105144;1265;103200;-76
2023/12/03 11:46:49;;;;;;;26.40;13.80;;;;;;;1.07;100.00;100658.45;105186;1259;101274;-76
2023/12/03 11:49:38;;;;;;;22.50;13.00;;;;;;;1.04;100.00;100664.45;105162;1262;97964;-76
2023/12/03 11:52:24;;;;;;;21.30;11.90;;;;;;;1.01;100.00;100672.77;105092;1259;98030;-75
2023/12/03 11:55:18;;;;;;;18.90;11.10;;;;;;;0.99;100.00;100676.30;105061;1264;97952;-76
2023/12/03 11:58:05;;;;;;;14.80;9.70;;;;;;;0.97;100.00;100676.52;105147;1260;103195;-75
2023/12/03 12:00:50;;;;;;;17.20;9.80;;;;;;;0.91;100.00;100679.04;105074;1264;100040;-75
2023/12/03 12:03:36;;;;;;;15.60;8.90;;;;;;;0.90;100.00;100683.00;105145;1259;98039;-76
2023/12/03 12:06:29;;;;;;;16.00;10.00;;;;;;;0.91;100.00;100685.45;105289;1259;97967;-75
2023/12/03 12:09:25;;;;;;;13.40;8.40;;;;;;;0.89;100.00;100683.98;105166;1264;97967;-75
2023/12/03 12:12:11;;;;;;;12.30;8.30;;;;;;;0.84;100.00;100687.73;105134;1259;103821;-76
2023/12/03 12:14:56;;;;;;;15.60;8.00;;;;;;;0.80;100.00;100691.39;105039;1264;100320;-76
2023/12/03 12:17:42;;;;;;;13.40;9.10;;;;;;;0.76;100.00;100693.83;105042;1260;98088;-76
2023/12/03 12:20:29;;;;;;;13.30;8.70;;;;;;;0.76;100.00;100698.39;105218;1260;98617;-74